sensor_id;sensor_type;location;lat;lon;timestamp;pressure;altitude;pressure_sealevel;temperature;humidity
64739;BME280;51175;51.186;0.276;2023-02-13T00:00:30;103248.84;;;11.96;65.91
64739;BME280;51175;51.186;0.276;2023-02-13T00:01:01;103249.69;;;11.96;65.46
64739;BME280;51175;51.186;0.276;2023-02-13T00:01:32;103248.84;;;11.96;65.58
64739;BME280;51175;51.186;0.276;2023-02-13T00:02:02;103251.50;;;11.96;65.60
64739;BME280;51175;51.186;0.276;2023-02-13T00:02:33;103254.97;;;11.96;65.63
64739;BME280;51175;51.186;0.276;2023-02-13T00:03:03;103248.06;;;11.95;65.76
64739;BME280;51175;51.186;0.276;2023-02-13T00:03:34;103250.72;;;11.95;65.86
64739;BME280;51175;51.186;0.276;2023-02-13T00:04:04;103252.31;;;11.96;65.75
64739;BME280;51175;51.186;0.276;2023-02-13T00:04:35;103247.84;;;11.97;66.04
64739;BME280;51175;51.186;0.276;2023-02-13T00:05:06;103251.50;;;11.96;65.37
64739;BME280;51175;51.186;0.276;2023-02-13T00:05:37;103252.31;;;11.96;65.38
64739;BME280;51175;51.186;0.276;2023-02-13T00:06:07;103243.56;;;11.96;65.51
64739;BME280;51175;51.186;0.276;2023-02-13T00:06:38;103242.75;;;11.95;65.60
64739;BME280;51175;51.186;0.276;2023-02-13T00:07:09;103245.41;;;11.95;65.67
64739;BME280;51175;51.186;0.276;2023-02-13T00:07:42;103241.94;;;11.95;65.83
64739;BME280;51175;51.186;0.276;2023-02-13T00:08:12;103246.41;;;11.94;65.79
64739;BME280;51175;51.186;0.276;2023-02-13T00:08:43;103239.28;;;11.95;65.36
64739;BME280;51175;51.186;0.276;2023-02-13T00:09:13;103245.63;;;11.94;65.08
64739;BME280;51175;51.186;0.276;2023-02-13T00:09:44;103242.97;;;11.94;65.45
64739;BME280;51175;51.186;0.276;2023-02-13T00:10:14;103236.84;;;11.93;65.75
64739;BME280;51175;51.186;0.276;2023-02-13T00:10:46;103238.66;;;11.92;65.66
64739;BME280;51175;51.186;0.276;2023-02-13T00:11:17;103236.00;;;11.92;65.63
64739;BME280;51175;51.186;0.276;2023-02-13T00:11:47;103234.38;;;11.91;65.60
64739;BME280;51175;51.186;0.276;2023-02-13T00:12:17;103228.91;;;11.93;65.93
64739;BME280;51175;51.186;0.276;2023-02-13T00:12:49;103234.38;;;11.91;65.82
64739;BME280;51175;51.186;0.276;2023-02-13T00:13:20;103237.03;;;11.91;65.74
64739;BME280;51175;51.186;0.276;2023-02-13T00:13:50;103231.75;;;11.91;65.70
64739;BME280;51175;51.186;0.276;2023-02-13T00:14:21;103231.94;;;11.90;65.70
64739;BME280;51175;51.186;0.276;2023-02-13T00:14:51;103229.09;;;11.91;65.88
64739;BME280;51175;51.186;0.276;2023-02-13T00:15:22;103229.28;;;11.90;65.78
64739;BME280;51175;51.186;0.276;2023-02-13T00:15:59;103228.47;;;11.89;65.67
64739;BME280;51175;51.186;0.276;2023-02-13T00:16:30;103227.69;;;11.89;65.91
64739;BME280;51175;51.186;0.276;2023-02-13T00:17:00;103229.50;;;11.88;65.75
64739;BME280;51175;51.186;0.276;2023-02-13T00:17:31;103224.19;;;11.88;65.28
64739;BME280;51175;51.186;0.276;2023-02-13T00:18:02;103228.47;;;11.89;65.39
64739;BME280;51175;51.186;0.276;2023-02-13T00:18:35;103225.81;;;11.89;65.38
64739;BME280;51175;51.186;0.276;2023-02-13T00:19:06;103220.53;;;11.89;65.20
64739;BME280;51175;51.186;0.276;2023-02-13T00:19:37;103221.34;;;11.90;65.50
64739;BME280;51175;51.186;0.276;2023-02-13T00:20:09;103225.03;;;11.89;65.59
64739;BME280;51175;51.186;0.276;2023-02-13T00:20:42;103218.91;;;11.88;65.32
64739;BME280;51175;51.186;0.276;2023-02-13T00:21:13;103218.91;;;11.88;65.50
64739;BME280;51175;51.186;0.276;2023-02-13T00:21:43;103226.84;;;11.88;65.42
64739;BME280;51175;51.186;0.276;2023-02-13T00:22:14;103217.09;;;11.89;65.80
64739;BME280;51175;51.186;0.276;2023-02-13T00:22:45;103212.78;;;11.88;65.73
64739;BME280;51175;51.186;0.276;2023-02-13T00:23:16;103212.78;;;11.88;65.53
64739;BME280;51175;51.186;0.276;2023-02-13T00:23:46;103221.56;;;11.88;65.61
64739;BME280;51175;51.186;0.276;2023-02-13T00:24:17;103218.91;;;11.88;65.72
64739;BME280;51175;51.186;0.276;2023-02-13T00:24:47;103211.16;;;11.87;65.34
64739;BME280;51175;51.186;0.276;2023-02-13T00:25:17;103212.78;;;11.88;65.28
64739;BME280;51175;51.186;0.276;2023-02-13T00:25:48;103218.91;;;11.88;65.52
64739;BME280;51175;51.186;0.276;2023-02-13T00:26:18;103219.09;;;11.87;65.26
64739;BME280;51175;51.186;0.276;2023-02-13T00:26:49;103217.28;;;11.87;65.35
64739;BME280;51175;51.186;0.276;2023-02-13T00:27:19;103213.81;;;11.87;65.54
64739;BME280;51175;51.186;0.276;2023-02-13T00:27:50;103207.69;;;11.86;65.43
64739;BME280;51175;51.186;0.276;2023-02-13T00:28:23;103205.03;;;11.86;65.59
64739;BME280;51175;51.186;0.276;2023-02-13T00:28:55;103212.97;;;11.86;65.56
64739;BME280;51175;51.186;0.276;2023-02-13T00:29:25;103207.69;;;11.86;65.36
64739;BME280;51175;51.186;0.276;2023-02-13T00:29:56;103211.16;;;11.87;65.49
64739;BME280;51175;51.186;0.276;2023-02-13T00:30:26;103210.34;;;11.86;65.25
64739;BME280;51175;51.186;0.276;2023-02-13T00:31:14;103205.88;;;11.87;65.31
64739;BME280;51175;51.186;0.276;2023-02-13T00:31:45;103213.81;;;11.87;65.49
64739;BME280;51175;51.186;0.276;2023-02-13T00:32:15;103206.91;;;11.86;65.73
64739;BME280;51175;51.186;0.276;2023-02-13T00:32:46;103206.91;;;11.86;65.76
64739;BME280;51175;51.186;0.276;2023-02-13T00:33:16;103210.34;;;11.86;65.74
64739;BME280;51175;51.186;0.276;2023-02-13T00:33:46;103206.91;;;11.86;65.84
64739;BME280;51175;51.186;0.276;2023-02-13T00:34:17;103206.06;;;11.85;65.75
64739;BME280;51175;51.186;0.276;2023-02-13T00:34:47;103210.34;;;11.86;65.81
64739;BME280;51175;51.186;0.276;2023-02-13T00:35:18;103211.38;;;11.85;65.93
64739;BME280;51175;51.186;0.276;2023-02-13T00:35:48;103209.53;;;11.86;65.53
64739;BME280;51175;51.186;0.276;2023-02-13T00:36:21;103210.34;;;11.86;65.31
64739;BME280;51175;51.186;0.276;2023-02-13T00:36:52;103205.03;;;11.86;65.69
64739;BME280;51175;51.186;0.276;2023-02-13T00:37:24;103213.19;;;11.85;65.74
64739;BME280;51175;51.186;0.276;2023-02-13T00:37:54;103207.88;;;11.85;65.83
64739;BME280;51175;51.186;0.276;2023-02-13T00:38:24;103205.25;;;11.85;65.42
64739;BME280;51175;51.186;0.276;2023-02-13T00:38:55;103207.88;;;11.85;65.25
64739;BME280;51175;51.186;0.276;2023-02-13T00:39:25;103202.59;;;11.85;65.36
64739;BME280;51175;51.186;0.276;2023-02-13T00:39:56;103206.06;;;11.85;65.45
64739;BME280;51175;51.186;0.276;2023-02-13T00:40:27;103201.59;;;11.86;65.59
64739;BME280;51175;51.186;0.276;2023-02-13T00:40:57;103203.41;;;11.85;65.34
64739;BME280;51175;51.186;0.276;2023-02-13T00:41:27;103203.41;;;11.85;65.44
64739;BME280;51175;51.186;0.276;2023-02-13T00:41:58;103206.91;;;11.86;65.20
64739;BME280;51175;51.186;0.276;2023-02-13T00:42:28;103202.38;;;11.86;65.84
64739;BME280;51175;51.186;0.276;2023-02-13T00:42:58;103195.47;;;11.85;65.03
64739;BME280;51175;51.186;0.276;2023-02-13T00:43:29;103197.09;;;11.86;65.08
64739;BME280;51175;51.186;0.276;2023-02-13T00:44:00;103199.75;;;11.86;65.11
64739;BME280;51175;51.186;0.276;2023-02-13T00:44:30;103196.31;;;11.86;65.28
64739;BME280;51175;51.186;0.276;2023-02-13T00:45:01;103204.25;;;11.86;65.13
64739;BME280;51175;51.186;0.276;2023-02-13T00:45:31;103198.94;;;11.86;65.44
64739;BME280;51175;51.186;0.276;2023-02-13T00:46:02;103198.13;;;11.85;65.11
64739;BME280;51175;51.186;0.276;2023-02-13T00:46:33;103198.13;;;11.85;65.18
64739;BME280;51175;51.186;0.276;2023-02-13T00:47:03;103199.75;;;11.86;65.39
64739;BME280;51175;51.186;0.276;2023-02-13T00:47:34;103199.75;;;11.86;65.34
64739;BME280;51175;51.186;0.276;2023-02-13T00:48:04;103201.59;;;11.86;65.36
64739;BME280;51175;51.186;0.276;2023-02-13T00:48:35;103197.09;;;11.86;65.59
64739;BME280;51175;51.186;0.276;2023-02-13T00:49:05;103198.94;;;11.86;65.73
64739;BME280;51175;51.186;0.276;2023-02-13T00:49:36;103204.25;;;11.86;65.99
64739;BME280;51175;51.186;0.276;2023-02-13T00:50:07;103196.31;;;11.86;65.67
64739;BME280;51175;51.186;0.276;2023-02-13T00:50:37;103193.66;;;11.86;65.57
64739;BME280;51175;51.186;0.276;2023-02-13T00:51:08;103194.66;;;11.85;65.43
64739;BME280;51175;51.186;0.276;2023-02-13T00:51:38;103194.66;;;11.85;65.20
64739;BME280;51175;51.186;0.276;2023-02-13T00:52:09;103197.31;;;11.85;65.25
64739;BME280;51175;51.186;0.276;2023-02-13T00:52:39;103197.31;;;11.85;65.25
64739;BME280;51175;51.186;0.276;2023-02-13T00:53:09;103197.31;;;11.85;65.45
64739;BME280;51175;51.186;0.276;2023-02-13T00:53:40;103189.34;;;11.85;65.49
64739;BME280;51175;51.186;0.276;2023-02-13T00:54:10;103189.34;;;11.85;65.35
64739;BME280;51175;51.186;0.276;2023-02-13T00:54:40;103191.22;;;11.84;65.37
64739;BME280;51175;51.186;0.276;2023-02-13T00:55:11;103192.81;;;11.85;65.56
64739;BME280;51175;51.186;0.276;2023-02-13T00:55:41;103189.34;;;11.85;65.43
64739;BME280;51175;51.186;0.276;2023-02-13T00:56:12;103191.22;;;11.84;65.48
64739;BME280;51175;51.186;0.276;2023-02-13T00:56:42;103186.69;;;11.85;65.31
64739;BME280;51175;51.186;0.276;2023-02-13T00:57:12;103195.69;;;11.84;65.12
64739;BME280;51175;51.186;0.276;2023-02-13T00:57:43;103194.66;;;11.85;65.23
64739;BME280;51175;51.186;0.276;2023-02-13T00:58:14;103193.84;;;11.84;65.30
64739;BME280;51175;51.186;0.276;2023-02-13T00:58:44;103193.84;;;11.84;65.29
64739;BME280;51175;51.186;0.276;2023-02-13T00:59:15;103188.56;;;11.84;65.46
64739;BME280;51175;51.186;0.276;2023-02-13T00:59:46;103191.22;;;11.84;65.51
64739;BME280;51175;51.186;0.276;2023-02-13T01:00:17;103194.06;;;11.83;65.29
64739;BME280;51175;51.186;0.276;2023-02-13T01:00:47;103195.88;;;11.82;65.02
64739;BME280;51175;51.186;0.276;2023-02-13T01:01:18;103194.84;;;11.83;65.19
64739;BME280;51175;51.186;0.276;2023-02-13T01:01:48;103193.22;;;11.82;64.89
64739;BME280;51175;51.186;0.276;2023-02-13T01:02:19;103195.88;;;11.82;64.97
64739;BME280;51175;51.186;0.276;2023-02-13T01:02:49;103194.06;;;11.83;65.41
64739;BME280;51175;51.186;0.276;2023-02-13T01:03:20;103193.03;;;11.84;65.38
64739;BME280;51175;51.186;0.276;2023-02-13T01:03:51;103193.03;;;11.84;65.43
64739;BME280;51175;51.186;0.276;2023-02-13T01:04:21;103190.38;;;11.84;65.29
64739;BME280;51175;51.186;0.276;2023-02-13T01:04:52;103190.38;;;11.84;65.39
64739;BME280;51175;51.186;0.276;2023-02-13T01:05:22;103190.38;;;11.84;65.59
64739;BME280;51175;51.186;0.276;2023-02-13T01:05:52;103195.69;;;11.84;65.74
64739;BME280;51175;51.186;0.276;2023-02-13T01:06:23;103186.13;;;11.83;65.33
64739;BME280;51175;51.186;0.276;2023-02-13T01:06:53;103187.72;;;11.84;65.40
64739;BME280;51175;51.186;0.276;2023-02-13T01:07:23;103188.56;;;11.84;65.42
64739;BME280;51175;51.186;0.276;2023-02-13T01:07:55;103187.72;;;11.84;65.22
64739;BME280;51175;51.186;0.276;2023-02-13T01:08:25;103186.91;;;11.83;65.21
64739;BME280;51175;51.186;0.276;2023-02-13T01:08:57;103188.75;;;11.83;65.31
64739;BME280;51175;51.186;0.276;2023-02-13T01:09:27;103191.41;;;11.83;65.50
64739;BME280;51175;51.186;0.276;2023-02-13T01:09:58;103187.09;;;11.82;65.20
64739;BME280;51175;51.186;0.276;2023-02-13T01:10:28;103182.63;;;11.82;65.14
64739;BME280;51175;51.186;0.276;2023-02-13T01:10:58;103193.22;;;11.82;65.05
64739;BME280;51175;51.186;0.276;2023-02-13T01:11:29;103189.75;;;11.82;65.49
64739;BME280;51175;51.186;0.276;2023-02-13T01:12:00;103193.44;;;11.80;65.80
64739;BME280;51175;51.186;0.276;2023-02-13T01:12:30;103189.75;;;11.82;65.85
64739;BME280;51175;51.186;0.276;2023-02-13T01:13:05;103195.25;;;11.80;65.54
64739;BME280;51175;51.186;0.276;2023-02-13T01:13:35;103197.09;;;11.79;65.42
64739;BME280;51175;51.186;0.276;2023-02-13T01:14:06;103188.34;;;11.79;65.71
64739;BME280;51175;51.186;0.276;2023-02-13T01:14:36;103195.25;;;11.80;65.37
64739;BME280;51175;51.186;0.276;2023-02-13T01:15:07;103197.09;;;11.79;65.45
64739;BME280;51175;51.186;0.276;2023-02-13T01:15:38;103195.25;;;11.80;65.42
64739;BME280;51175;51.186;0.276;2023-02-13T01:16:09;103196.91;;;11.81;65.28
64739;BME280;51175;51.186;0.276;2023-02-13T01:16:39;103193.44;;;11.80;65.24
64739;BME280;51175;51.186;0.276;2023-02-13T01:17:10;103185.69;;;11.79;64.93
64739;BME280;51175;51.186;0.276;2023-02-13T01:17:40;103192.59;;;11.80;65.10
64739;BME280;51175;51.186;0.276;2023-02-13T01:18:15;103190.78;;;11.80;65.08
64739;BME280;51175;51.186;0.276;2023-02-13T01:18:46;103190.78;;;11.80;64.96
64739;BME280;51175;51.186;0.276;2023-02-13T01:19:16;103199.56;;;11.81;64.95
64739;BME280;51175;51.186;0.276;2023-02-13T01:19:46;103189.97;;;11.80;65.05
64739;BME280;51175;51.186;0.276;2023-02-13T01:20:17;103195.25;;;11.80;65.09
64739;BME280;51175;51.186;0.276;2023-02-13T01:21:03;103195.25;;;11.80;65.21
64739;BME280;51175;51.186;0.276;2023-02-13T01:21:34;103190.97;;;11.79;64.91
64739;BME280;51175;51.186;0.276;2023-02-13T01:22:04;103198.72;;;11.80;65.22
64739;BME280;51175;51.186;0.276;2023-02-13T01:22:34;103198.72;;;11.80;65.62
64739;BME280;51175;51.186;0.276;2023-02-13T01:23:05;103195.25;;;11.80;65.38
64739;BME280;51175;51.186;0.276;2023-02-13T01:23:37;103200.75;;;11.78;65.44
64739;BME280;51175;51.186;0.276;2023-02-13T01:24:08;103198.94;;;11.79;65.09
64739;BME280;51175;51.186;0.276;2023-02-13T01:24:38;103193.00;;;11.77;65.14
64739;BME280;51175;51.186;0.276;2023-02-13T01:25:09;103201.97;;;11.76;64.78
64739;BME280;51175;51.186;0.276;2023-02-13T01:25:40;103194.84;;;11.76;65.25
64739;BME280;51175;51.186;0.276;2023-02-13T01:26:16;103195.06;;;11.75;65.30
64739;BME280;51175;51.186;0.276;2023-02-13T01:26:47;103195.84;;;11.75;65.49
64739;BME280;51175;51.186;0.276;2023-02-13T01:27:18;103198.50;;;11.75;65.46
64739;BME280;51175;51.186;0.276;2023-02-13T01:27:48;103203.00;;;11.75;65.38
64739;BME280;51175;51.186;0.276;2023-02-13T01:28:19;103196.88;;;11.74;64.97
64739;BME280;51175;51.186;0.276;2023-02-13T01:28:53;103202.19;;;11.74;65.14
64739;BME280;51175;51.186;0.276;2023-02-13T01:29:24;103200.34;;;11.75;65.16
64739;BME280;51175;51.186;0.276;2023-02-13T01:29:55;103194.22;;;11.74;64.99
64739;BME280;51175;51.186;0.276;2023-02-13T01:30:25;103194.22;;;11.74;65.13
64739;BME280;51175;51.186;0.276;2023-02-13T01:30:56;103192.41;;;11.75;65.07
64739;BME280;51175;51.186;0.276;2023-02-13T01:31:27;103191.59;;;11.74;64.88
64739;BME280;51175;51.186;0.276;2023-02-13T01:31:57;103191.59;;;11.74;64.89
64739;BME280;51175;51.186;0.276;2023-02-13T01:32:28;103196.88;;;11.74;65.11
64739;BME280;51175;51.186;0.276;2023-02-13T01:32:58;103195.25;;;11.73;64.55
64739;BME280;51175;51.186;0.276;2023-02-13T01:33:28;103189.97;;;11.73;64.31
64739;BME280;51175;51.186;0.276;2023-02-13T01:33:59;103194.44;;;11.73;64.53
64739;BME280;51175;51.186;0.276;2023-02-13T01:34:33;103193.41;;;11.74;64.93
64739;BME280;51175;51.186;0.276;2023-02-13T01:35:05;103196.06;;;11.74;64.99
64739;BME280;51175;51.186;0.276;2023-02-13T01:35:38;103190.97;;;11.72;65.21
64739;BME280;51175;51.186;0.276;2023-02-13T01:36:10;103188.31;;;11.72;65.08
64739;BME280;51175;51.186;0.276;2023-02-13T01:36:41;103190.97;;;11.72;64.96
64739;BME280;51175;51.186;0.276;2023-02-13T01:37:12;103192.00;;;11.71;64.91
64739;BME280;51175;51.186;0.276;2023-02-13T01:37:43;103190.16;;;11.72;65.08
64739;BME280;51175;51.186;0.276;2023-02-13T01:38:13;103196.25;;;11.72;65.15
64739;BME280;51175;51.186;0.276;2023-02-13T01:38:44;103191.16;;;11.71;64.84
64739;BME280;51175;51.186;0.276;2023-02-13T01:39:14;103189.34;;;11.71;64.86
64739;BME280;51175;51.186;0.276;2023-02-13T01:39:44;103185.88;;;11.71;64.81
64739;BME280;51175;51.186;0.276;2023-02-13T01:40:15;103187.72;;;11.70;64.91
64739;BME280;51175;51.186;0.276;2023-02-13T01:40:48;103185.88;;;11.71;64.84
64739;BME280;51175;51.186;0.276;2023-02-13T01:41:19;103193.03;;;11.70;65.12
64739;BME280;51175;51.186;0.276;2023-02-13T01:41:49;103190.56;;;11.69;65.10
64739;BME280;51175;51.186;0.276;2023-02-13T01:42:23;103191.38;;;11.69;64.92
64739;BME280;51175;51.186;0.276;2023-02-13T01:42:54;103191.38;;;11.69;65.09
64739;BME280;51175;51.186;0.276;2023-02-13T01:45:26;103185.66;;;11.65;64.88
64739;BME280;51175;51.186;0.276;2023-02-13T01:45:57;103192.59;;;11.66;64.89
64739;BME280;51175;51.186;0.276;2023-02-13T01:46:37;103186.66;;;11.64;65.29
64739;BME280;51175;51.186;0.276;2023-02-13T01:47:09;103187.69;;;11.63;65.42
64739;BME280;51175;51.186;0.276;2023-02-13T01:47:44;103194.81;;;11.63;65.17
64739;BME280;51175;51.186;0.276;2023-02-13T01:48:15;103193.97;;;11.62;65.33
64739;BME280;51175;51.186;0.276;2023-02-13T01:48:48;103189.72;;;11.61;64.85
64739;BME280;51175;51.186;0.276;2023-02-13T01:49:21;103190.53;;;11.62;64.91
64739;BME280;51175;51.186;0.276;2023-02-13T01:50:05;103189.72;;;11.61;64.85
64739;BME280;51175;51.186;0.276;2023-02-13T01:50:43;103200.31;;;11.61;64.96
64739;BME280;51175;51.186;0.276;2023-02-13T01:51:19;103195.00;;;11.61;65.35
64739;BME280;51175;51.186;0.276;2023-02-13T01:51:53;103196.03;;;11.60;65.09
64739;BME280;51175;51.186;0.276;2023-02-13T01:52:25;103196.84;;;11.61;64.83
64739;BME280;51175;51.186;0.276;2023-02-13T01:52:58;103191.53;;;11.61;65.25
64739;BME280;51175;51.186;0.276;2023-02-13T01:53:33;103195.22;;;11.60;65.28
64739;BME280;51175;51.186;0.276;2023-02-13T01:54:14;103187.47;;;11.58;65.06
64739;BME280;51175;51.186;0.276;2023-02-13T01:54:45;103188.50;;;11.57;64.99
64739;BME280;51175;51.186;0.276;2023-02-13T01:55:16;103187.47;;;11.58;64.82
64739;BME280;51175;51.186;0.276;2023-02-13T01:55:52;103189.50;;;11.56;64.93
64739;BME280;51175;51.186;0.276;2023-02-13T01:56:32;103186.84;;;11.56;65.07
64739;BME280;51175;51.186;0.276;2023-02-13T01:57:09;103187.88;;;11.55;65.08
64739;BME280;51175;51.186;0.276;2023-02-13T01:57:44;103190.53;;;11.55;65.00
64739;BME280;51175;51.186;0.276;2023-02-13T01:58:20;103190.72;;;11.53;64.73
64739;BME280;51175;51.186;0.276;2023-02-13T01:58:53;103183.81;;;11.52;64.91
64739;BME280;51175;51.186;0.276;2023-02-13T01:59:30;103192.53;;;11.53;65.19
64739;BME280;51175;51.186;0.276;2023-02-13T02:00:09;103186.44;;;11.52;64.91
64739;BME280;51175;51.186;0.276;2023-02-13T02:00:40;103187.44;;;11.51;64.72
64739;BME280;51175;51.186;0.276;2023-02-13T02:01:11;103190.91;;;11.52;64.98
64739;BME280;51175;51.186;0.276;2023-02-13T02:01:42;103189.28;;;11.51;64.91
64739;BME280;51175;51.186;0.276;2023-02-13T02:02:13;103190.91;;;11.52;64.95
64739;BME280;51175;51.186;0.276;2023-02-13T02:02:50;103195.38;;;11.51;64.82
64739;BME280;51175;51.186;0.276;2023-02-13T02:03:31;103189.28;;;11.51;64.79
64739;BME280;51175;51.186;0.276;2023-02-13T02:04:10;103185.81;;;11.50;64.73
64739;BME280;51175;51.186;0.276;2023-02-13T02:04:42;103185.81;;;11.50;64.96
64739;BME280;51175;51.186;0.276;2023-02-13T02:05:15;103190.28;;;11.50;64.85
64739;BME280;51175;51.186;0.276;2023-02-13T02:05:46;103184.19;;;11.49;64.99
64739;BME280;51175;51.186;0.276;2023-02-13T02:06:28;103182.53;;;11.48;64.85
64739;BME280;51175;51.186;0.276;2023-02-13T02:07:09;103185.00;;;11.50;64.76
64739;BME280;51175;51.186;0.276;2023-02-13T02:07:41;103180.72;;;11.49;64.87
64739;BME280;51175;51.186;0.276;2023-02-13T02:08:13;103182.53;;;11.48;64.79
64739;BME280;51175;51.186;0.276;2023-02-13T02:08:45;103182.75;;;11.47;64.99
64739;BME280;51175;51.186;0.276;2023-02-13T02:09:21;103187.25;;;11.46;64.93
64739;BME280;51175;51.186;0.276;2023-02-13T02:09:55;103180.94;;;11.47;64.93
64739;BME280;51175;51.186;0.276;2023-02-13T02:10:28;103181.13;;;11.46;64.57
64739;BME280;51175;51.186;0.276;2023-02-13T02:11:06;103175.84;;;11.46;64.68
64739;BME280;51175;51.186;0.276;2023-02-13T02:11:55;103178.69;;;11.44;64.81
64739;BME280;51175;51.186;0.276;2023-02-13T02:12:44;103176.03;;;11.44;64.70
64739;BME280;51175;51.186;0.276;2023-02-13T02:13:19;103180.50;;;11.43;64.54
64739;BME280;51175;51.186;0.276;2023-02-13T02:13:50;103172.56;;;11.43;64.94
64739;BME280;51175;51.186;0.276;2023-02-13T02:14:21;103177.06;;;11.43;64.82
64739;BME280;51175;51.186;0.276;2023-02-13T02:14:53;103172.75;;;11.42;64.68
64739;BME280;51175;51.186;0.276;2023-02-13T02:15:24;103178.88;;;11.42;64.92
64739;BME280;51175;51.186;0.276;2023-02-13T02:15:55;103173.59;;;11.42;64.85
64739;BME280;51175;51.186;0.276;2023-02-13T02:16:25;103171.97;;;11.41;64.94
64739;BME280;51175;51.186;0.276;2023-02-13T02:16:56;103168.50;;;11.41;65.23
64739;BME280;51175;51.186;0.276;2023-02-13T02:17:27;103169.31;;;11.41;65.13
64739;BME280;51175;51.186;0.276;2023-02-13T02:17:57;103170.31;;;11.40;65.38
64739;BME280;51175;51.186;0.276;2023-02-13T02:18:27;103165.03;;;11.40;65.14
64739;BME280;51175;51.186;0.276;2023-02-13T02:19:01;103172.16;;;11.40;65.14
64739;BME280;51175;51.186;0.276;2023-02-13T02:21:36;103166.25;;;11.38;64.99
64739;BME280;51175;51.186;0.276;2023-02-13T02:27:33;103180.28;;;11.32;64.78
64739;BME280;51175;51.186;0.276;2023-02-13T02:30:34;103172.94;;;11.27;65.25
64739;BME280;51175;51.186;0.276;2023-02-13T02:39:04;103168.00;;;11.17;65.12
64739;BME280;51175;51.186;0.276;2023-02-13T02:43:13;103164.91;;;11.13;65.36
64739;BME280;51175;51.186;0.276;2023-02-13T02:44:01;103159.63;;;11.13;65.20
64739;BME280;51175;51.186;0.276;2023-02-13T02:44:47;103161.69;;;11.11;65.07
64739;BME280;51175;51.186;0.276;2023-02-13T02:46:39;103161.69;;;11.11;65.45
64739;BME280;51175;51.186;0.276;2023-02-13T02:48:42;103161.69;;;11.11;65.08
64739;BME280;51175;51.186;0.276;2023-02-13T02:49:37;103160.03;;;11.10;65.15
64739;BME280;51175;51.186;0.276;2023-02-13T02:51:22;103158.41;;;11.09;65.06
64739;BME280;51175;51.186;0.276;2023-02-13T02:52:43;103163.06;;;11.07;65.20
64739;BME280;51175;51.186;0.276;2023-02-13T02:55:10;103160.63;;;11.05;65.37
64739;BME280;51175;51.186;0.276;2023-02-13T02:55:47;103164.09;;;11.06;65.71
64739;BME280;51175;51.186;0.276;2023-02-13T02:56:24;103163.25;;;11.05;65.71
64739;BME280;51175;51.186;0.276;2023-02-13T02:57:02;103165.91;;;11.05;65.50
64739;BME280;51175;51.186;0.276;2023-02-13T02:59:20;103160.81;;;11.04;65.38
64739;BME280;51175;51.186;0.276;2023-02-13T03:00:11;103157.38;;;11.03;65.24
64739;BME280;51175;51.186;0.276;2023-02-13T03:01:01;103155.72;;;11.02;65.25
64739;BME280;51175;51.186;0.276;2023-02-13T03:01:54;103160.22;;;11.02;65.18
64739;BME280;51175;51.186;0.276;2023-02-13T03:02:44;103163.66;;;11.02;65.29
64739;BME280;51175;51.186;0.276;2023-02-13T03:03:33;103162.03;;;11.01;65.20
64739;BME280;51175;51.186;0.276;2023-02-13T03:04:32;103160.41;;;11.00;65.29
64739;BME280;51175;51.186;0.276;2023-02-13T03:05:28;103159.59;;;11.00;65.48
64739;BME280;51175;51.186;0.276;2023-02-13T03:07:08;103163.06;;;11.00;65.41
64739;BME280;51175;51.186;0.276;2023-02-13T03:07:16;103160.56;;;10.99;65.32
64739;BME280;51175;51.186;0.276;2023-02-13T03:07:47;103158.75;;;10.99;65.24
64739;BME280;51175;51.186;0.276;2023-02-13T03:08:18;103159.59;;;11.00;65.46
64739;BME280;51175;51.186;0.276;2023-02-13T03:09:15;103157.13;;;10.98;65.33
64739;BME280;51175;51.186;0.276;2023-02-13T03:10:12;103152.66;;;10.99;65.52
64739;BME280;51175;51.186;0.276;2023-02-13T03:11:01;103156.31;;;10.98;65.61
64739;BME280;51175;51.186;0.276;2023-02-13T03:11:53;103162.44;;;10.98;65.53
64739;BME280;51175;51.186;0.276;2023-02-13T03:13:14;103152.84;;;10.97;65.46
64739;BME280;51175;51.186;0.276;2023-02-13T03:13:53;103156.50;;;10.96;65.50
64739;BME280;51175;51.186;0.276;2023-02-13T03:14:26;103153.03;;;10.96;65.68
64739;BME280;51175;51.186;0.276;2023-02-13T03:14:57;103150.41;;;10.96;65.54
64739;BME280;51175;51.186;0.276;2023-02-13T03:15:28;103153.88;;;10.96;65.37
64739;BME280;51175;51.186;0.276;2023-02-13T03:15:59;103156.50;;;10.96;65.60
64739;BME280;51175;51.186;0.276;2023-02-13T03:16:49;103151.22;;;10.96;65.68
64739;BME280;51175;51.186;0.276;2023-02-13T03:17:38;103148.56;;;10.96;65.22
64739;BME280;51175;51.186;0.276;2023-02-13T03:18:30;103154.88;;;10.95;65.63
64739;BME280;51175;51.186;0.276;2023-02-13T03:20:51;103157.72;;;10.93;65.22
64739;BME280;51175;51.186;0.276;2023-02-13T03:22:01;103146.31;;;10.93;65.06
64739;BME280;51175;51.186;0.276;2023-02-13T03:24:04;103146.53;;;10.91;65.39
64739;BME280;51175;51.186;0.276;2023-02-13T03:25:29;103145.69;;;10.91;65.54
64739;BME280;51175;51.186;0.276;2023-02-13T03:28:35;103152.19;;;10.88;65.25
64739;BME280;51175;51.186;0.276;2023-02-13T03:33:59;103151.75;;;10.85;64.98
64739;BME280;51175;51.186;0.276;2023-02-13T03:34:35;103151.75;;;10.85;65.27
64739;BME280;51175;51.186;0.276;2023-02-13T03:35:54;103144.03;;;10.83;64.86
64739;BME280;51175;51.186;0.276;2023-02-13T03:37:00;103150.16;;;10.84;65.41
64739;BME280;51175;51.186;0.276;2023-02-13T03:37:57;103153.81;;;10.83;65.54
64739;BME280;51175;51.186;0.276;2023-02-13T03:38:44;103152.16;;;10.82;65.54
64739;BME280;51175;51.186;0.276;2023-02-13T03:40:44;103148.72;;;10.81;65.35
64739;BME280;51175;51.186;0.276;2023-02-13T03:41:43;103146.06;;;10.81;65.57
64739;BME280;51175;51.186;0.276;2023-02-13T03:42:37;103150.72;;;10.79;65.14
64739;BME280;51175;51.186;0.276;2023-02-13T03:43:13;103149.91;;;10.78;65.52